createdAt,value
2018-05-29T00:01:01.742Z,20.80
2018-05-29T00:03:29.206Z,20.80
2018-05-29T00:05:56.678Z,20.70
2018-05-29T00:08:24.234Z,20.70
2018-05-29T00:10:51.686Z,20.60
2018-05-29T00:13:19.156Z,20.60
2018-05-29T00:15:46.594Z,20.60
2018-05-29T00:18:14.055Z,20.60
2018-05-29T00:20:41.515Z,20.50
2018-05-29T00:23:08.980Z,20.50
2018-05-29T00:25:36.466Z,20.40
2018-05-29T00:28:03.938Z,20.40
2018-05-29T00:30:31.498Z,20.40
2018-05-29T00:32:59.053Z,20.30
2018-05-29T00:35:26.521Z,20.30
2018-05-29T00:37:53.983Z,20.20
2018-05-29T00:40:21.448Z,20.20
2018-05-29T00:42:48.902Z,20.10
2018-05-29T00:45:16.472Z,20.10
2018-05-29T00:47:43.935Z,20.10
2018-05-29T00:50:11.386Z,20.00
2018-05-29T00:52:38.958Z,20.00
2018-05-29T00:55:18.498Z,19.90
2018-05-29T00:57:46.218Z,19.90
2018-05-29T01:00:13.744Z,19.90
2018-05-29T01:02:41.206Z,19.90
2018-05-29T01:05:08.763Z,19.80
2018-05-29T01:07:36.208Z,19.80
2018-05-29T01:10:03.683Z,19.80
2018-05-29T01:12:31.123Z,19.80
2018-05-29T01:14:58.570Z,19.70
2018-05-29T01:17:26.072Z,19.70
2018-05-29T01:19:53.539Z,19.70
2018-05-29T01:22:21.023Z,19.70
2018-05-29T01:24:48.457Z,19.70
2018-05-29T01:27:16.018Z,19.60
2018-05-29T01:29:43.486Z,19.60
2018-05-29T01:32:11.045Z,19.60
2018-05-29T01:34:38.525Z,19.50
2018-05-29T01:37:06.084Z,19.50
2018-05-29T01:39:33.538Z,19.50
2018-05-29T01:42:01.006Z,19.40
2018-05-29T01:44:28.452Z,19.40
2018-05-29T01:46:55.902Z,19.40
2018-05-29T01:49:23.369Z,19.30
2018-05-29T01:51:50.857Z,19.30
2018-05-29T01:54:19.138Z,19.20
2018-05-29T01:56:46.588Z,19.20
2018-05-29T01:59:14.034Z,19.30
2018-05-29T02:01:41.501Z,19.30
2018-05-29T02:04:08.970Z,19.30
2018-05-29T02:06:36.454Z,19.30
2018-05-29T02:09:04.618Z,19.30
2018-05-29T02:11:32.080Z,19.20
2018-05-29T02:13:59.525Z,19.20
2018-05-29T02:16:27.027Z,19.20
2018-05-29T02:18:54.481Z,19.10
2018-05-29T02:21:21.963Z,19.10
2018-05-29T02:23:49.510Z,19.10
2018-05-29T02:26:16.973Z,19.10
2018-05-29T02:28:44.461Z,19.10
2018-05-29T02:31:11.911Z,19.00
2018-05-29T02:33:39.359Z,19.10
2018-05-29T02:36:06.817Z,19.00
2018-05-29T02:38:34.281Z,19.00
2018-05-29T02:41:01.735Z,19.10
2018-05-29T02:43:29.291Z,19.10
2018-05-29T02:45:56.745Z,19.10
2018-05-29T02:48:24.203Z,19.00
2018-05-29T02:50:51.666Z,19.10
2018-05-29T02:53:19.107Z,19.00
2018-05-29T02:55:47.433Z,19.00
2018-05-29T02:58:14.895Z,19.00
2018-05-29T03:00:42.369Z,18.90
2018-05-29T03:03:09.837Z,18.90
2018-05-29T03:05:37.295Z,18.90
2018-05-29T03:08:04.893Z,18.90
2018-05-29T03:10:32.313Z,18.90
2018-05-29T03:12:59.775Z,18.90
2018-05-29T03:15:27.246Z,18.90
2018-05-29T03:17:54.713Z,18.90
2018-05-29T03:20:22.422Z,18.90
2018-05-29T03:22:50.754Z,18.90
2018-05-29T03:25:18.189Z,18.90
2018-05-29T03:27:45.676Z,19.00
2018-05-29T03:30:13.114Z,18.90
2018-05-29T03:32:40.601Z,19.00
2018-05-29T03:35:08.053Z,18.90
2018-05-29T03:37:35.525Z,18.90
2018-05-29T03:40:02.975Z,19.00
2018-05-29T03:42:30.442Z,18.90
2018-05-29T03:44:57.916Z,19.00
2018-05-29T03:47:25.379Z,18.90
2018-05-29T03:49:52.841Z,18.90
2018-05-29T03:52:20.306Z,18.90
2018-05-29T03:54:47.763Z,18.90
2018-05-29T03:57:15.220Z,18.90
2018-05-29T03:59:42.698Z,18.90
2018-05-29T04:02:10.248Z,18.90
2018-05-29T04:04:37.701Z,18.90
2018-05-29T04:07:05.187Z,18.90
2018-05-29T04:09:32.646Z,18.80
2018-05-29T04:12:00.112Z,18.90
2018-05-29T04:14:27.558Z,18.90
2018-05-29T04:16:55.072Z,18.90
2018-05-29T04:19:22.521Z,18.90
2018-05-29T04:21:49.964Z,18.90
2018-05-29T04:24:17.397Z,18.90
2018-05-29T04:26:44.866Z,19.00
2018-05-29T04:29:12.315Z,19.00
2018-05-29T04:31:39.810Z,19.00
2018-05-29T04:34:07.269Z,19.10
2018-05-29T04:36:34.831Z,19.10
2018-05-29T04:39:02.286Z,19.20
2018-05-29T04:41:29.772Z,19.20
2018-05-29T04:43:57.242Z,19.20
2018-05-29T04:46:24.783Z,19.30
2018-05-29T04:48:52.252Z,19.30
2018-05-29T04:51:19.734Z,19.10
2018-05-29T04:53:47.274Z,19.00
2018-05-29T04:56:14.734Z,19.10
2018-05-29T04:58:42.210Z,19.10
2018-05-29T05:01:09.673Z,19.10
2018-05-29T05:03:37.146Z,19.20
2018-05-29T05:06:04.687Z,19.20
2018-05-29T05:08:32.133Z,19.30
2018-05-29T05:10:59.622Z,19.40
2018-05-29T05:13:27.075Z,19.40
2018-05-29T05:15:54.547Z,19.40
2018-05-29T05:18:21.998Z,19.40
2018-05-29T05:20:49.470Z,19.40
2018-05-29T05:23:16.918Z,19.40
2018-05-29T05:25:44.385Z,19.40
2018-05-29T05:28:11.995Z,19.30
2018-05-29T05:30:39.420Z,19.40
2018-05-29T05:33:06.867Z,19.40
2018-05-29T05:35:34.334Z,19.40
2018-05-29T05:38:01.816Z,19.40
2018-05-29T05:40:29.259Z,19.50
2018-05-29T05:42:56.698Z,19.50
2018-05-29T05:45:24.163Z,19.70
2018-05-29T05:47:51.650Z,19.70
2018-05-29T05:50:19.126Z,19.80
2018-05-29T05:52:46.721Z,19.90
2018-05-29T05:55:14.155Z,19.80
2018-05-29T05:57:41.598Z,19.80
2018-05-29T06:00:09.061Z,19.90
2018-05-29T06:02:36.517Z,19.90
2018-05-29T06:05:03.994Z,20.10
2018-05-29T06:07:31.554Z,20.20
2018-05-29T06:09:59.007Z,20.30
2018-05-29T06:12:26.486Z,20.40
2018-05-29T06:14:53.957Z,20.50
2018-05-29T06:17:21.510Z,20.50
2018-05-29T06:19:48.970Z,20.70
2018-05-29T06:22:16.422Z,20.80
2018-05-29T06:24:43.906Z,20.90
2018-05-29T06:27:11.349Z,20.90
2018-05-29T06:29:38.826Z,21.00
2018-05-29T06:32:06.289Z,21.10
2018-05-29T06:34:33.733Z,21.10
2018-05-29T06:37:01.310Z,21.20
2018-05-29T06:39:28.765Z,21.20
2018-05-29T06:41:56.322Z,21.20
2018-05-29T06:44:23.785Z,21.40
2018-05-29T06:46:51.264Z,21.40
2018-05-29T06:49:18.727Z,21.50
2018-05-29T06:51:46.183Z,21.60
2018-05-29T06:54:13.659Z,21.60
2018-05-29T06:56:41.214Z,21.70
2018-05-29T06:59:08.674Z,21.80
2018-05-29T07:01:36.151Z,21.90
2018-05-29T07:04:03.706Z,21.90
2018-05-29T07:06:31.266Z,22.00
2018-05-29T07:08:58.841Z,22.00
2018-05-29T07:11:26.282Z,22.10
2018-05-29T07:13:53.865Z,22.10
2018-05-29T07:16:21.322Z,22.10
2018-05-29T07:18:48.793Z,22.00
2018-05-29T07:21:16.245Z,22.00
2018-05-29T07:23:43.693Z,22.00
2018-05-29T07:26:11.170Z,22.00
2018-05-29T07:28:38.621Z,21.90
2018-05-29T07:31:06.083Z,21.90
2018-05-29T07:33:33.554Z,21.90
2018-05-29T07:36:01.021Z,21.90
2018-05-29T07:38:28.512Z,21.90
2018-05-29T07:40:55.974Z,21.90
2018-05-29T07:43:23.514Z,22.00
2018-05-29T07:45:50.966Z,22.00
2018-05-29T07:48:18.422Z,22.00
2018-05-29T07:50:45.906Z,22.10
2018-05-29T07:53:13.358Z,22.20
2018-05-29T07:55:40.823Z,22.20
2018-05-29T07:58:08.301Z,22.30
2018-05-29T08:00:35.853Z,22.40
2018-05-29T08:03:03.325Z,22.50
2018-05-29T08:05:30.887Z,22.50
2018-05-29T08:07:58.339Z,22.60
2018-05-29T08:10:25.903Z,22.60
2018-05-29T08:12:53.380Z,22.60
2018-05-29T08:15:20.937Z,22.60
2018-05-29T08:17:48.401Z,22.50
2018-05-29T08:20:15.888Z,22.50
2018-05-29T08:22:43.334Z,22.50
2018-05-29T08:25:10.789Z,22.50
2018-05-29T08:27:38.259Z,22.40
2018-05-29T08:30:05.814Z,22.50
2018-05-29T08:32:33.283Z,22.50
2018-05-29T08:35:00.838Z,22.60
2018-05-29T08:37:28.305Z,22.50
2018-05-29T08:39:55.770Z,22.60
2018-05-29T08:42:23.210Z,22.60
2018-05-29T08:44:50.681Z,22.70
2018-05-29T08:47:18.150Z,22.70
2018-05-29T08:49:45.613Z,22.70
2018-05-29T08:52:13.058Z,22.80
2018-05-29T08:54:40.517Z,22.80
2018-05-29T08:57:07.961Z,22.80
2018-05-29T08:59:35.434Z,22.80
2018-05-29T09:02:02.899Z,22.90
2018-05-29T09:04:30.352Z,22.90
2018-05-29T09:06:57.808Z,22.90
2018-05-29T09:09:25.274Z,23.00
2018-05-29T09:11:52.735Z,23.10
2018-05-29T09:14:21.056Z,23.20
2018-05-29T09:16:48.526Z,23.10
2018-05-29T09:19:15.985Z,23.10
2018-05-29T09:21:43.447Z,23.10
2018-05-29T09:24:10.890Z,23.10
2018-05-29T09:26:39.277Z,23.10
2018-05-29T09:29:06.726Z,23.20
2018-05-29T09:31:34.223Z,23.30
2018-05-29T09:34:01.682Z,23.20
2018-05-29T09:36:29.151Z,23.20
2018-05-29T09:38:56.618Z,23.30
2018-05-29T09:41:24.094Z,23.30
2018-05-29T09:43:51.541Z,23.40
2018-05-29T09:46:18.998Z,23.50
2018-05-29T09:48:46.554Z,23.60
2018-05-29T09:51:14.125Z,23.70
2018-05-29T09:53:41.697Z,23.70
2018-05-29T09:56:09.148Z,23.80
2018-05-29T09:58:36.628Z,23.90
2018-05-29T10:01:04.074Z,24.00
2018-05-29T10:03:31.546Z,24.10
2018-05-29T10:05:58.989Z,24.20
2018-05-29T10:08:26.468Z,24.20
2018-05-29T10:10:53.926Z,24.20
2018-05-29T10:13:21.364Z,24.30
2018-05-29T10:15:48.844Z,24.20
2018-05-29T10:18:16.286Z,24.30
2018-05-29T10:20:43.759Z,24.40
2018-05-29T10:23:11.230Z,24.50
2018-05-29T10:25:38.794Z,24.60
2018-05-29T10:28:10.453Z,24.70
2018-05-29T10:30:37.910Z,24.90
2018-05-29T10:33:05.390Z,25.20
2018-05-29T10:35:32.941Z,25.30
2018-05-29T10:38:00.415Z,25.50
2018-05-29T10:40:27.878Z,25.40
2018-05-29T10:42:55.342Z,25.50
2018-05-29T10:45:22.819Z,25.50
2018-05-29T10:47:50.285Z,25.50
2018-05-29T10:50:17.826Z,25.50
2018-05-29T10:52:45.275Z,25.50
2018-05-29T10:55:12.746Z,25.50
2018-05-29T10:57:40.218Z,25.50
2018-05-29T11:00:07.779Z,25.50
2018-05-29T11:02:35.241Z,25.50
2018-05-29T11:05:02.690Z,25.40
2018-05-29T11:07:30.164Z,25.40
2018-05-29T11:09:57.617Z,25.30
2018-05-29T11:12:25.093Z,25.30
2018-05-29T11:14:52.545Z,25.20
2018-05-29T11:17:20.022Z,25.10
2018-05-29T11:19:47.585Z,25.10
2018-05-29T11:22:15.057Z,25.00
2018-05-29T11:24:42.607Z,24.90
2018-05-29T11:27:10.060Z,24.90
2018-05-29T11:29:37.527Z,24.90
2018-05-29T11:32:04.986Z,24.90
2018-05-29T11:34:32.468Z,24.90
2018-05-29T11:37:00.014Z,24.90
2018-05-29T11:39:27.494Z,24.80
2018-05-29T11:41:54.955Z,24.80
2018-05-29T11:44:22.413Z,24.70
2018-05-29T11:46:49.874Z,24.60
2018-05-29T11:49:17.326Z,24.50
2018-05-29T11:51:44.795Z,24.60
2018-05-29T11:54:12.403Z,24.60
2018-05-29T11:56:40.741Z,24.40
2018-05-29T11:59:08.194Z,24.40
2018-05-29T12:01:35.654Z,24.40
2018-05-29T12:04:03.124Z,24.40
2018-05-29T12:06:30.590Z,24.50
2018-05-29T12:08:58.053Z,24.60
2018-05-29T12:11:25.514Z,24.50
2018-05-29T12:13:52.959Z,24.40
2018-05-29T12:16:20.426Z,24.30
2018-05-29T12:18:48.730Z,24.20
2018-05-29T12:21:16.182Z,24.20
2018-05-29T12:23:43.650Z,24.20
2018-05-29T12:26:11.110Z,24.20
2018-05-29T12:28:38.564Z,24.20
2018-05-29T12:31:06.030Z,24.20
2018-05-29T12:33:33.481Z,24.10
2018-05-29T12:36:00.958Z,24.00
2018-05-29T12:38:28.401Z,24.00
2018-05-29T12:40:55.892Z,23.90
2018-05-29T12:43:23.339Z,23.80
2018-05-29T12:45:50.789Z,23.70
2018-05-29T12:48:18.258Z,23.70
2018-05-29T12:50:45.734Z,23.80
2018-05-29T12:53:13.350Z,23.80
2018-05-29T12:55:40.733Z,23.70
2018-05-29T12:58:08.190Z,23.60
2018-05-29T13:00:35.635Z,23.50
2018-05-29T13:03:03.870Z,23.40
2018-05-29T13:08:12.615Z,23.30
2018-05-29T13:10:40.066Z,23.10
2018-05-29T13:13:07.631Z,23.00
2018-05-29T13:15:35.195Z,22.80
2018-05-29T13:18:02.655Z,22.70
2018-05-29T13:20:30.114Z,22.70
2018-05-29T13:22:58.323Z,22.70
2018-05-29T13:25:25.781Z,22.70
2018-05-29T13:27:53.251Z,22.60
2018-05-29T13:30:20.714Z,22.50
2018-05-29T13:32:48.182Z,22.50
2018-05-29T13:35:15.674Z,22.40
2018-05-29T13:37:43.103Z,22.40
2018-05-29T13:40:10.563Z,22.40
2018-05-29T13:42:38.005Z,22.30
2018-05-29T13:45:05.467Z,22.30
2018-05-29T13:47:32.923Z,22.20
2018-05-29T13:50:00.370Z,22.20
2018-05-29T13:52:27.838Z,22.10
2018-05-29T13:54:55.410Z,22.10
2018-05-29T13:57:22.858Z,22.10
2018-05-29T13:59:50.339Z,22.00
2018-05-29T14:02:17.830Z,22.00
2018-05-29T14:04:45.371Z,21.90
2018-05-29T14:07:12.813Z,21.90
2018-05-29T14:09:40.274Z,22.00
2018-05-29T14:12:07.734Z,22.00
2018-05-29T14:14:35.198Z,22.00
2018-05-29T14:17:02.647Z,21.90
2018-05-29T14:19:30.089Z,21.90
2018-05-29T14:21:58.421Z,21.80
2018-05-29T14:24:25.875Z,21.80
2018-05-29T14:26:53.333Z,21.80
2018-05-29T14:29:20.798Z,21.80
2018-05-29T14:31:48.246Z,21.80
2018-05-29T14:34:15.713Z,21.80
2018-05-29T14:36:43.170Z,21.80
2018-05-29T14:39:10.666Z,21.80
2018-05-29T14:41:38.135Z,21.70
2018-05-29T14:44:05.635Z,21.70
2018-05-29T14:46:33.048Z,21.70
2018-05-29T14:49:00.502Z,21.70
2018-05-29T14:51:27.974Z,21.60
2018-05-29T14:53:55.431Z,21.60
2018-05-29T14:56:22.893Z,21.50
2018-05-29T14:58:50.358Z,21.50
2018-05-29T15:01:17.822Z,21.50
2018-05-29T15:03:45.282Z,21.40
2018-05-29T15:06:12.774Z,21.40
2018-05-29T15:08:40.236Z,21.50
2018-05-29T15:11:07.779Z,21.40
2018-05-29T15:13:35.239Z,21.40
2018-05-29T15:16:02.693Z,21.30
2018-05-29T15:18:30.241Z,21.30
2018-05-29T15:20:57.642Z,21.30
2018-05-29T15:23:25.109Z,21.30
2018-05-29T15:25:52.578Z,21.30
2018-05-29T15:28:20.801Z,21.30
2018-05-29T15:30:48.296Z,21.30
2018-05-29T15:33:15.824Z,21.40
2018-05-29T15:35:43.206Z,21.30
2018-05-29T15:38:10.761Z,21.30
2018-05-29T15:40:38.287Z,21.30
2018-05-29T15:43:05.706Z,21.20
2018-05-29T15:45:33.266Z,21.30
2018-05-29T15:48:00.734Z,21.20
2018-05-29T15:50:28.294Z,21.20
2018-05-29T15:52:55.762Z,21.20
2018-05-29T15:55:23.224Z,21.20
2018-05-29T15:57:50.672Z,21.20
2018-05-29T16:00:18.134Z,21.20
2018-05-29T16:02:45.619Z,21.20
2018-05-29T16:05:13.082Z,21.20
2018-05-29T16:07:40.518Z,21.30
2018-05-29T16:10:08.011Z,21.30
2018-05-29T16:12:35.458Z,21.40
2018-05-29T16:15:02.910Z,21.50
2018-05-29T16:17:30.391Z,21.60
2018-05-29T16:19:57.829Z,21.60
2018-05-29T16:22:25.315Z,21.70
2018-05-29T16:24:52.758Z,21.80
2018-05-29T16:27:20.246Z,21.80
2018-05-29T16:29:47.687Z,21.70
2018-05-29T16:32:15.162Z,21.70
2018-05-29T16:34:42.612Z,21.70
2018-05-29T16:37:10.085Z,21.80
2018-05-29T16:39:37.648Z,21.80
2018-05-29T16:42:05.097Z,21.80
2018-05-29T16:44:32.562Z,21.80
2018-05-29T16:47:00.046Z,21.80
2018-05-29T16:49:27.600Z,21.80
2018-05-29T16:51:55.061Z,21.80
2018-05-29T16:54:22.557Z,21.70
2018-05-29T16:56:49.997Z,21.70
2018-05-29T16:59:17.473Z,21.70
2018-05-29T17:01:45.845Z,21.70
2018-05-29T17:04:13.324Z,21.70
2018-05-29T17:06:40.786Z,21.70
2018-05-29T17:09:08.322Z,21.70
2018-05-29T17:11:35.889Z,21.70
2018-05-29T17:14:03.338Z,21.70
2018-05-29T17:16:30.803Z,21.70
2018-05-29T17:18:58.263Z,21.60
2018-05-29T17:21:25.719Z,21.60
2018-05-29T17:23:53.191Z,21.60
2018-05-29T17:26:20.766Z,21.60
2018-05-29T17:28:48.223Z,21.50
2018-05-29T17:31:15.666Z,21.50
2018-05-29T17:33:43.143Z,21.50
2018-05-29T17:36:11.378Z,21.50
2018-05-29T17:38:39.593Z,21.50
2018-05-29T17:41:07.058Z,21.50
2018-05-29T17:43:34.493Z,21.50
2018-05-29T17:46:01.952Z,21.40
2018-05-29T17:48:30.177Z,21.40
2018-05-29T17:50:57.622Z,21.40
2018-05-29T17:53:25.085Z,21.40
2018-05-29T17:55:52.526Z,21.30
2018-05-29T17:58:19.994Z,21.30
2018-05-29T18:00:47.433Z,21.30
2018-05-29T18:03:15.674Z,21.30
2018-05-29T18:05:43.146Z,21.30
2018-05-29T18:08:10.668Z,21.30
2018-05-29T18:10:38.107Z,21.20
2018-05-29T18:13:05.510Z,21.20
2018-05-29T18:15:32.968Z,21.10
2018-05-29T18:18:00.435Z,21.10
2018-05-29T18:20:27.893Z,21.10
2018-05-29T18:22:55.342Z,21.10
2018-05-29T18:25:22.840Z,21.00
2018-05-29T18:27:50.274Z,21.00
2018-05-29T18:30:17.743Z,21.00
2018-05-29T18:32:45.207Z,21.00
2018-05-29T18:35:12.642Z,20.90
2018-05-29T18:37:40.113Z,20.90
2018-05-29T18:40:07.568Z,20.90
2018-05-29T18:42:35.810Z,20.90
2018-05-29T18:45:03.264Z,20.90
2018-05-29T18:47:31.474Z,21.00
2018-05-29T18:49:59.715Z,20.90
2018-05-29T18:52:27.177Z,20.90
2018-05-29T18:54:54.647Z,21.00
2018-05-29T18:57:22.090Z,21.00
2018-05-29T18:59:49.550Z,20.90
2018-05-29T19:02:17.031Z,20.80
2018-05-29T19:04:44.497Z,20.80
2018-05-29T19:07:11.962Z,20.90
2018-05-29T19:09:39.508Z,20.90
2018-05-29T19:12:06.982Z,20.90
2018-05-29T19:14:34.431Z,20.80
2018-05-29T19:17:01.910Z,20.80
2018-05-29T19:19:29.370Z,20.80
2018-05-29T19:21:56.834Z,20.80
2018-05-29T19:24:24.304Z,20.80
2018-05-29T19:26:51.777Z,20.70
2018-05-29T19:29:19.973Z,20.60
2018-05-29T19:31:48.186Z,20.70
2018-05-29T19:34:15.653Z,20.60
2018-05-29T19:36:43.107Z,20.70
2018-05-29T19:39:10.558Z,20.60
2018-05-29T19:41:38.073Z,20.60
2018-05-29T19:44:05.534Z,20.50
2018-05-29T19:46:33.011Z,20.50
2018-05-29T19:49:00.450Z,20.50
2018-05-29T19:51:27.931Z,20.50
2018-05-29T19:53:55.373Z,20.50
2018-05-29T19:56:22.838Z,20.40
2018-05-29T19:58:50.301Z,20.40
2018-05-29T20:01:17.931Z,20.30
2018-05-29T20:03:45.326Z,20.30
2018-05-29T20:06:12.775Z,20.20
2018-05-29T20:08:40.242Z,20.20
2018-05-29T20:11:07.706Z,20.20
2018-05-29T20:13:35.290Z,20.10
2018-05-29T20:16:02.748Z,20.00
2018-05-29T20:18:30.222Z,20.00
2018-05-29T20:20:57.772Z,20.00
2018-05-29T20:23:25.638Z,19.90
2018-05-29T20:25:53.366Z,20.00
2018-05-29T20:28:20.806Z,19.90
2018-05-29T20:30:49.038Z,19.80
2018-05-29T20:33:16.490Z,19.70
2018-05-29T20:35:43.974Z,19.70
2018-05-29T20:38:11.531Z,19.70
2018-05-29T20:40:38.995Z,19.70
2018-05-29T20:43:06.562Z,19.70
2018-05-29T20:45:34.006Z,19.60
2018-05-29T20:48:01.484Z,19.60
2018-05-29T20:50:28.950Z,19.60
2018-05-29T20:52:56.510Z,19.50
2018-05-29T20:55:23.979Z,19.40
2018-05-29T20:57:51.442Z,19.30
2018-05-29T21:00:18.889Z,19.30
2018-05-29T21:02:46.362Z,19.30
2018-05-29T21:05:13.823Z,19.30
2018-05-29T21:07:41.380Z,19.30
2018-05-29T21:10:08.842Z,19.30
2018-05-29T21:12:36.316Z,19.30
2018-05-29T21:15:03.755Z,19.30
2018-05-29T21:17:31.215Z,19.30
2018-05-29T21:19:58.717Z,19.30
2018-05-29T21:22:26.269Z,19.20
2018-05-29T21:24:53.711Z,19.20
2018-05-29T21:27:21.171Z,19.10
2018-05-29T21:29:48.676Z,19.10
2018-05-29T21:32:16.222Z,19.00
2018-05-29T21:34:43.711Z,19.00
2018-05-29T21:37:11.147Z,18.90
2018-05-29T21:39:38.622Z,18.90
2018-05-29T21:42:06.173Z,18.80
2018-05-29T21:44:33.622Z,18.80
2018-05-29T21:47:01.102Z,18.80
2018-05-29T21:49:28.571Z,18.70
2018-05-29T21:51:56.049Z,18.70
2018-05-29T21:54:23.582Z,18.70
2018-05-29T21:56:51.046Z,18.70
2018-05-29T21:59:18.535Z,18.60
2018-05-29T22:01:46.002Z,18.60
2018-05-29T22:04:13.544Z,18.60
2018-05-29T22:06:41.002Z,18.60
2018-05-29T22:09:08.478Z,18.50
2018-05-29T22:11:35.922Z,18.40
2018-05-29T22:14:03.395Z,18.40
2018-05-29T22:16:30.969Z,18.40
2018-05-29T22:18:58.519Z,18.40
2018-05-29T22:21:25.964Z,18.30
2018-05-29T22:23:53.422Z,18.30
2018-05-29T22:26:20.888Z,18.30
2018-05-29T22:28:48.349Z,18.20
2018-05-29T22:31:15.838Z,18.20
2018-05-29T22:33:43.393Z,18.20
2018-05-29T22:36:10.836Z,18.10
2018-05-29T22:38:38.278Z,18.20
2018-05-29T22:41:05.790Z,18.10
2018-05-29T22:43:33.242Z,18.10
2018-05-29T22:46:00.740Z,18.10
2018-05-29T22:48:28.229Z,18.10
2018-05-29T22:50:56.463Z,18.10
2018-05-29T22:53:23.919Z,18.10
2018-05-29T22:55:51.386Z,18.20
2018-05-29T22:58:18.843Z,18.20
2018-05-29T23:00:46.302Z,18.10
2018-05-29T23:03:13.761Z,18.10
2018-05-29T23:05:41.237Z,18.00
2018-05-29T23:08:08.675Z,18.00
2018-05-29T23:10:36.131Z,17.90
2018-05-29T23:13:03.614Z,17.90
2018-05-29T23:15:31.090Z,17.80
2018-05-29T23:17:58.539Z,17.80
2018-05-29T23:20:26.009Z,17.80
2018-05-29T23:22:53.477Z,17.70
2018-05-29T23:25:20.925Z,17.70
2018-05-29T23:27:48.362Z,17.70
2018-05-29T23:30:15.849Z,17.70
2018-05-29T23:32:43.314Z,17.70
2018-05-29T23:35:10.777Z,17.60
2018-05-29T23:37:38.254Z,17.60
2018-05-29T23:40:05.811Z,17.60
2018-05-29T23:42:33.281Z,17.60
2018-05-29T23:45:00.729Z,17.50
2018-05-29T23:47:28.207Z,17.50
2018-05-29T23:49:55.673Z,17.50
2018-05-29T23:52:23.128Z,17.50
2018-05-29T23:54:50.591Z,17.50
2018-05-29T23:57:18.150Z,17.50
2018-05-29T23:59:45.709Z,17.50
